PHBK METAR and TAF | Updated Today

PHBK METAR

Barking Sands Airport

Observation time: 5 min. ago

PHBK 060828Z AUTO 15005KT 10SM SCT022 BKN029 BKN110 22/18 A2983 RMK AO2 T02170178 $

Need help? Read our tutorial on how to read METARs or read the parsed version below.

Barking Sands Airport (PHBK) METAR

  • Weather conditions on Mon, 06 Dec 2021 08:28:00 +0000 (5 min. ago):
  • Present conditions: Dry
  • Clouds: Scattered at 671 meters; broken sky at 884 meters; broken sky at 3353 meters
  • Visibility: 16093 meters
  • Wind: 150 degrees at 5 knots
  • Temperature: 22 celsius
  • Dew point: 18 celsius
  • Pressure: 29.83 inHg
  • Remarks: AO2 T02170178 $


Useful to know...

PHBK TAF

Barking Sands Airport

TAF not found.